createdAt,value
2022-08-11T00:00:06.128Z,25.29
2022-08-11T00:02:38.251Z,25.26
2022-08-11T00:05:11.259Z,25.24
2022-08-11T00:07:47.856Z,25.10
2022-08-11T00:10:19.530Z,25.20
2022-08-11T00:12:55.677Z,25.14
2022-08-11T00:15:24.667Z,25.05
2022-08-11T00:18:00.502Z,25.17
2022-08-11T00:20:36.255Z,25.02
2022-08-11T00:23:10.201Z,25.15
2022-08-11T00:25:44.930Z,25.09
2022-08-11T00:28:31.863Z,25.02
2022-08-11T00:31:04.717Z,25.08
2022-08-11T00:33:41.292Z,24.97
2022-08-11T00:36:16.562Z,24.97
2022-08-11T00:38:50.963Z,25.01
2022-08-11T00:41:34.285Z,24.86
2022-08-11T00:44:37.801Z,24.71
2022-08-11T00:47:25.646Z,24.31
2022-08-11T00:50:05.357Z,24.84
2022-08-11T00:53:00.702Z,24.78
2022-08-11T00:56:35.407Z,24.71
2022-08-11T00:59:35.001Z,24.54
2022-08-11T01:02:44.588Z,24.63
2022-08-11T01:05:39.974Z,24.66
2022-08-11T01:08:44.659Z,24.57
2022-08-11T01:11:55.384Z,24.57
2022-08-11T01:15:00.827Z,24.48
2022-08-11T01:18:28.457Z,24.47
2022-08-11T01:21:46.593Z,24.50
2022-08-11T01:25:17.988Z,24.40
2022-08-11T01:28:51.309Z,24.32
2022-08-11T01:32:02.520Z,24.34
2022-08-11T01:35:25.924Z,24.28
2022-08-11T01:38:39.621Z,24.19
2022-08-11T01:41:51.188Z,24.13
2022-08-11T01:45:10.451Z,24.14
2022-08-11T01:47:53.915Z,24.14
2022-08-11T01:50:39.004Z,24.05
2022-08-11T01:53:19.225Z,23.99
2022-08-11T01:56:02.697Z,23.92
2022-08-11T01:58:45.028Z,23.87
2022-08-11T02:01:37.659Z,23.84
2022-08-11T02:04:20.683Z,23.83
2022-08-11T02:07:02.602Z,23.83
2022-08-11T02:09:55.331Z,23.86
2022-08-11T02:12:52.610Z,23.83
2022-08-11T02:15:28.624Z,23.75
2022-08-11T02:18:09.213Z,23.85
2022-08-11T02:21:06.415Z,23.88
2022-08-11T02:24:07.177Z,23.85
2022-08-11T02:26:43.394Z,23.80
2022-08-11T02:35:42.975Z,23.75
2022-08-11T02:38:20.070Z,23.77
2022-08-11T02:41:29.480Z,23.72
2022-08-11T02:44:18.344Z,23.75
2022-08-11T02:46:58.458Z,23.73
2022-08-11T02:50:02.499Z,23.73
2022-08-11T02:52:47.880Z,23.69
2022-08-11T02:55:56.708Z,23.61
2022-08-11T02:58:35.553Z,23.62
2022-08-11T03:01:14.800Z,23.58
2022-08-11T03:03:54.843Z,23.53
2022-08-11T03:06:34.045Z,23.45
2022-08-11T03:09:09.260Z,23.44
2022-08-11T03:12:16.274Z,23.43
2022-08-11T03:15:11.315Z,23.39
2022-08-11T03:17:51.013Z,23.34
2022-08-11T03:20:38.353Z,23.34
2022-08-11T03:23:19.787Z,23.42
2022-08-11T03:25:56.859Z,23.39
2022-08-11T03:28:35.388Z,23.35
2022-08-11T03:31:24.865Z,23.28
2022-08-11T03:34:07.075Z,23.22
2022-08-11T03:37:51.914Z,23.12
2022-08-11T03:42:01.949Z,23.09
2022-08-11T03:44:14.259Z,23.13
2022-08-11T03:47:10.279Z,23.16
2022-08-11T03:49:58.030Z,23.18
2022-08-11T03:52:43.387Z,23.04
2022-08-11T03:55:24.871Z,23.06
2022-08-11T03:58:36.885Z,23.05
2022-08-11T04:02:05.493Z,22.87
2022-08-11T04:05:28.142Z,22.89
2022-08-11T04:08:34.460Z,22.95
2022-08-11T04:11:38.697Z,22.90
2022-08-11T04:14:50.303Z,22.90
2022-08-11T04:18:00.860Z,22.87
2022-08-11T04:21:22.060Z,22.75
2022-08-11T04:24:37.066Z,22.83
2022-08-11T04:27:39.071Z,22.78
2022-08-11T04:30:14.893Z,22.82
2022-08-11T04:33:24.353Z,22.76
2022-08-11T04:36:11.751Z,22.73
2022-08-11T04:39:13.939Z,22.74
2022-08-11T04:42:31.817Z,22.77
2022-08-11T04:45:43.573Z,22.81
2022-08-11T04:49:06.311Z,22.88
2022-08-11T04:52:21.404Z,22.82
2022-08-11T04:55:21.222Z,22.83
2022-08-11T04:58:21.717Z,22.87
2022-08-11T05:01:37.775Z,22.95
2022-08-11T05:04:40.322Z,22.87
2022-08-11T05:07:48.536Z,23.00
2022-08-11T05:10:44.743Z,22.92
2022-08-11T05:13:41.495Z,23.05
2022-08-11T05:16:32.390Z,23.17
2022-08-11T05:19:19.649Z,23.17
2022-08-11T05:22:12.886Z,23.30
2022-08-11T05:25:04.937Z,23.35
2022-08-11T05:27:57.671Z,23.50
2022-08-11T05:30:47.602Z,23.59
2022-08-11T05:33:40.965Z,23.70
2022-08-11T05:36:17.798Z,23.81
2022-08-11T05:39:13.808Z,23.84
2022-08-11T05:42:01.973Z,24.01
2022-08-11T05:44:48.880Z,24.01
2022-08-11T05:47:42.764Z,24.10
2022-08-11T05:50:33.144Z,24.18
2022-08-11T05:53:20.521Z,24.26
2022-08-11T05:56:08.526Z,24.42
2022-08-11T05:58:42.915Z,24.67
2022-08-11T06:01:13.311Z,24.79
2022-08-11T06:04:03.691Z,24.82
2022-08-11T06:06:33.315Z,25.09
2022-08-11T06:09:02.791Z,25.31
2022-08-11T06:11:43.809Z,25.49
2022-08-11T06:14:16.423Z,25.64
2022-08-11T06:16:48.711Z,25.69
2022-08-11T06:19:17.869Z,25.87
2022-08-11T06:21:48.024Z,25.93
2022-08-11T06:24:17.179Z,25.54
2022-08-11T06:29:55.221Z,25.93
2022-08-11T06:32:28.533Z,25.89
2022-08-11T06:35:20.997Z,25.84
2022-08-11T06:38:06.426Z,25.67
2022-08-11T06:41:04.890Z,25.62
2022-08-11T06:43:55.936Z,25.48
2022-08-11T06:46:38.809Z,25.53
2022-08-11T06:49:29.156Z,25.69
2022-08-11T06:52:00.587Z,25.55
2022-08-11T06:54:31.940Z,25.63
2022-08-11T06:57:29.729Z,24.85
2022-08-11T07:00:33.231Z,24.82
2022-08-11T07:03:09.408Z,24.16
2022-08-11T07:05:46.294Z,24.27
2022-08-11T07:09:18.709Z,24.44
2022-08-11T07:12:24.791Z,25.02
2022-08-11T07:15:13.856Z,25.32
2022-08-11T07:17:49.800Z,25.44
2022-08-11T07:20:37.338Z,25.71
2022-08-11T07:23:27.093Z,25.89
2022-08-11T07:26:15.892Z,26.08
2022-08-11T07:28:58.677Z,25.93
2022-08-11T07:31:37.335Z,26.04
2022-08-11T07:34:18.993Z,26.27
2022-08-11T07:36:53.762Z,26.13
2022-08-11T07:39:24.718Z,26.34
2022-08-11T07:41:57.075Z,26.48
2022-08-11T07:44:34.320Z,26.70
2022-08-11T07:47:21.541Z,26.84
2022-08-11T07:50:10.581Z,26.91
2022-08-11T07:52:41.060Z,27.03
2022-08-11T07:55:14.053Z,26.98
2022-08-11T07:58:16.475Z,27.20
2022-08-11T08:01:22.341Z,27.32
2022-08-11T08:04:09.777Z,27.55
2022-08-11T08:06:56.788Z,27.52
2022-08-11T08:09:44.720Z,27.79
2022-08-11T08:12:32.180Z,28.00
2022-08-11T08:15:20.069Z,28.10
2022-08-11T08:18:21.036Z,28.20
2022-08-11T08:20:49.813Z,27.46
2022-08-11T08:23:32.870Z,27.48
2022-08-11T08:26:26.083Z,27.22
2022-08-11T08:29:16.412Z,26.87
2022-08-11T08:31:45.289Z,26.92
2022-08-11T08:34:15.838Z,26.74
2022-08-11T08:36:44.544Z,26.32
2022-08-11T08:39:14.534Z,26.88
2022-08-11T08:41:45.317Z,26.46
2022-08-11T08:44:37.646Z,26.05
2022-08-11T08:47:09.030Z,26.75
2022-08-11T08:49:49.273Z,27.25
2022-08-11T08:52:30.800Z,27.38
2022-08-11T08:55:07.559Z,26.69
2022-08-11T08:57:38.946Z,26.77
2022-08-11T09:00:12.516Z,27.37
2022-08-11T09:02:44.815Z,27.44
2022-08-11T09:05:13.749Z,26.97
2022-08-11T09:07:43.251Z,26.78
2022-08-11T09:10:12.502Z,26.77
2022-08-11T09:12:43.636Z,26.96
2022-08-11T09:15:14.111Z,27.16
2022-08-11T09:17:47.568Z,27.39
2022-08-11T09:20:20.907Z,27.54
2022-08-11T09:26:17.690Z,28.09
2022-08-11T09:28:50.093Z,28.30
2022-08-11T09:31:21.905Z,28.51
2022-08-11T09:33:53.624Z,28.18
2022-08-11T09:36:39.723Z,28.74
2022-08-11T09:39:26.587Z,28.96
2022-08-11T09:42:23.618Z,28.96
2022-08-11T09:44:52.780Z,29.51
2022-08-11T09:47:27.039Z,29.86
2022-08-11T09:50:00.216Z,29.91
2022-08-11T09:52:33.709Z,30.16
2022-08-11T09:55:10.890Z,29.72
2022-08-11T09:57:59.470Z,29.66
2022-08-11T10:00:37.244Z,29.94
2022-08-11T10:03:10.962Z,29.13
2022-08-11T10:05:57.720Z,29.20
2022-08-11T10:08:32.519Z,28.85
2022-08-11T10:11:01.793Z,29.00
2022-08-11T10:14:31.122Z,29.26
2022-08-11T10:16:43.794Z,29.56
2022-08-11T10:19:12.823Z,29.33
2022-08-11T10:22:05.302Z,29.10
2022-08-11T10:25:03.899Z,29.82
2022-08-11T10:28:17.705Z,30.22
2022-08-11T10:30:38.338Z,30.11
2022-08-11T10:33:37.715Z,29.81
2022-08-11T10:36:16.144Z,30.02
2022-08-11T10:38:46.803Z,30.53
2022-08-11T10:41:33.190Z,30.77
2022-08-11T10:44:04.116Z,30.22
2022-08-11T10:46:47.250Z,30.17
2022-08-11T10:49:17.360Z,30.42
2022-08-11T10:52:04.073Z,30.82
2022-08-11T10:54:52.768Z,30.77
2022-08-11T10:57:39.726Z,30.62
2022-08-11T11:00:15.230Z,30.60
2022-08-11T11:02:44.597Z,31.07
2022-08-11T11:05:35.228Z,31.13
2022-08-11T11:08:27.661Z,30.89
2022-08-11T11:10:56.573Z,30.71
2022-08-11T11:13:53.183Z,30.84
2022-08-11T11:16:41.210Z,30.40
2022-08-11T11:19:11.564Z,30.84
2022-08-11T11:21:43.292Z,30.90
2022-08-11T11:24:37.362Z,30.37
2022-08-11T11:27:16.091Z,30.33
2022-08-11T11:30:05.167Z,30.71
2022-08-11T11:32:49.505Z,30.80
2022-08-11T11:35:36.489Z,31.13
2022-08-11T11:38:13.880Z,30.58
2022-08-11T11:40:43.207Z,30.94
2022-08-11T11:43:12.523Z,30.25
2022-08-11T11:45:43.408Z,30.43
2022-08-11T11:48:13.641Z,30.49
2022-08-11T11:50:42.487Z,31.02
2022-08-11T11:53:14.073Z,30.76
2022-08-11T11:55:43.245Z,30.89
2022-08-11T11:58:29.328Z,30.91
2022-08-11T12:01:17.424Z,31.43
2022-08-11T12:03:50.806Z,30.87
2022-08-11T12:06:23.133Z,30.63
2022-08-11T12:08:55.318Z,31.14
2022-08-11T12:11:44.187Z,31.54
2022-08-11T12:14:13.101Z,31.16
2022-08-11T12:16:44.891Z,31.29
2022-08-11T12:19:16.238Z,30.89
2022-08-11T12:22:00.529Z,31.28
2022-08-11T12:24:50.305Z,31.36
2022-08-11T12:27:24.873Z,31.41
2022-08-11T12:29:57.665Z,31.20
2022-08-11T12:32:30.249Z,30.89
2022-08-11T12:34:59.023Z,30.90
2022-08-11T12:37:33.069Z,31.09
2022-08-11T12:40:42.415Z,30.35
2022-08-11T12:43:38.004Z,30.49
2022-08-11T12:46:11.632Z,30.47
2022-08-11T12:49:04.283Z,30.61
2022-08-11T12:52:11.976Z,30.55
2022-08-11T12:54:59.867Z,30.15
2022-08-11T12:57:51.273Z,30.24
2022-08-11T13:00:38.746Z,30.41
2022-08-11T13:03:27.315Z,30.52
2022-08-11T13:05:58.621Z,30.50
2022-08-11T13:08:30.337Z,30.77
2022-08-11T13:11:19.190Z,31.07
2022-08-11T13:13:57.047Z,31.09
2022-08-11T13:16:32.114Z,30.98
2022-08-11T13:19:01.876Z,30.52
2022-08-11T13:21:31.048Z,30.64
2022-08-11T13:24:03.131Z,31.00
2022-08-11T13:26:45.008Z,31.03
2022-08-11T13:29:22.997Z,30.63
2022-08-11T13:31:53.086Z,30.71
2022-08-11T13:34:23.060Z,30.85
2022-08-11T13:36:54.803Z,31.24
2022-08-11T13:39:25.903Z,31.36
2022-08-11T13:41:56.391Z,31.26
2022-08-11T13:44:28.935Z,30.95
2022-08-11T13:47:01.382Z,31.04
2022-08-11T13:49:31.549Z,30.91
2022-08-11T13:52:00.976Z,30.87
2022-08-11T13:54:33.049Z,30.70
2022-08-11T13:57:09.176Z,30.86
2022-08-11T13:59:52.355Z,30.76
2022-08-11T14:02:30.306Z,30.87
2022-08-11T14:05:03.257Z,31.27
2022-08-11T14:07:37.176Z,31.29
2022-08-11T14:10:08.645Z,31.04
2022-08-11T14:12:56.565Z,31.15
2022-08-11T14:15:33.335Z,30.88
2022-08-11T14:18:07.603Z,30.70
2022-08-11T14:21:00.329Z,30.79
2022-08-11T14:23:32.136Z,30.90
2022-08-11T14:26:19.411Z,31.08
2022-08-11T14:28:48.911Z,31.18
2022-08-11T14:31:19.085Z,31.65
2022-08-11T14:34:01.145Z,31.55
2022-08-11T14:36:35.190Z,31.15
2022-08-11T14:39:08.725Z,30.99
2022-08-11T14:42:10.686Z,30.83
2022-08-11T14:45:17.164Z,31.34
2022-08-11T14:47:52.361Z,31.63
2022-08-11T14:50:26.093Z,31.84
2022-08-11T14:52:59.632Z,31.77
2022-08-11T14:55:47.787Z,31.79
2022-08-11T14:58:19.228Z,32.24
2022-08-11T15:00:48.654Z,31.92
2022-08-11T15:03:18.096Z,32.04
2022-08-11T15:05:57.733Z,32.36
2022-08-11T15:08:48.271Z,31.76
2022-08-11T15:11:37.383Z,31.61
2022-08-11T15:14:09.857Z,31.67
2022-08-11T15:16:59.699Z,31.68
2022-08-11T15:19:40.465Z,31.70
2022-08-11T15:22:39.750Z,31.58
2022-08-11T15:25:09.259Z,31.77
2022-08-11T15:27:58.743Z,31.87
2022-08-11T15:30:45.433Z,32.06
2022-08-11T15:33:35.852Z,31.50
2022-08-11T15:36:26.034Z,31.13
2022-08-11T15:39:00.141Z,31.02
2022-08-11T15:41:58.634Z,31.55
2022-08-11T15:45:06.289Z,31.11
2022-08-11T15:47:43.354Z,31.29
2022-08-11T15:50:20.220Z,31.29
2022-08-11T15:52:58.130Z,31.72
2022-08-11T15:55:27.387Z,31.90
2022-08-11T15:58:14.924Z,32.02
2022-08-11T16:01:08.974Z,32.10
2022-08-11T16:04:08.511Z,31.37
2022-08-11T16:06:54.250Z,31.16
2022-08-11T16:09:32.871Z,31.39
2022-08-11T16:12:19.922Z,30.85
2022-08-11T16:15:09.385Z,31.20
2022-08-11T16:17:44.285Z,31.35
2022-08-11T16:20:14.635Z,30.95
2022-08-11T16:23:02.208Z,30.74
2022-08-11T16:26:30.332Z,30.68
2022-08-11T16:28:26.542Z,30.90
2022-08-11T16:30:55.635Z,31.24
2022-08-11T16:33:49.664Z,31.43
2022-08-11T16:36:32.878Z,31.05
2022-08-11T16:39:03.064Z,31.17
2022-08-11T16:41:52.932Z,31.18
2022-08-11T16:44:40.692Z,31.18
2022-08-11T16:47:16.131Z,31.39
2022-08-11T16:49:52.282Z,31.52
2022-08-11T16:52:23.011Z,31.63
2022-08-11T16:54:52.654Z,31.71
2022-08-11T16:57:44.056Z,31.74
2022-08-11T17:00:16.384Z,31.83
2022-08-11T17:03:08.524Z,31.89
2022-08-11T17:06:00.019Z,31.92
2022-08-11T17:08:57.950Z,31.90
2022-08-11T17:11:48.062Z,31.60
2022-08-11T17:14:35.406Z,31.69
2022-08-11T17:17:07.607Z,31.67
2022-08-11T17:20:40.475Z,31.65
2022-08-11T17:22:47.682Z,31.86
2022-08-11T17:25:18.438Z,31.86
2022-08-11T17:27:48.918Z,31.92
2022-08-11T17:30:18.675Z,31.90
2022-08-11T17:33:08.454Z,32.01
2022-08-11T17:35:41.733Z,31.98
2022-08-11T17:38:12.936Z,31.92
2022-08-11T17:41:04.958Z,31.94
2022-08-11T17:43:52.266Z,31.90
2022-08-11T17:46:40.002Z,31.89
2022-08-11T17:49:11.304Z,31.95
2022-08-11T17:51:58.855Z,31.89
2022-08-11T17:54:45.787Z,31.89
2022-08-11T17:57:29.306Z,31.95
2022-08-11T17:59:59.817Z,31.84
2022-08-11T18:02:48.479Z,31.67
2022-08-11T18:05:20.015Z,31.74
2022-08-11T18:08:09.290Z,31.75
2022-08-11T18:10:59.840Z,31.77
2022-08-11T18:13:56.384Z,31.67
2022-08-11T18:16:42.727Z,31.66
2022-08-11T18:19:30.727Z,31.71
2022-08-11T18:22:27.407Z,31.66
2022-08-11T18:25:17.428Z,31.72
2022-08-11T18:28:06.787Z,31.66
2022-08-11T18:31:03.908Z,31.55
2022-08-11T18:34:07.825Z,31.54
2022-08-11T18:37:01.133Z,31.51
2022-08-11T18:39:54.613Z,31.35
2022-08-11T18:42:43.341Z,31.34
2022-08-11T18:45:39.997Z,31.33
2022-08-11T18:48:37.490Z,31.28
2022-08-11T18:51:30.547Z,31.20
2022-08-11T18:54:24.868Z,31.11
2022-08-11T18:57:12.179Z,31.06
2022-08-11T19:00:01.012Z,30.70
2022-08-11T19:02:49.737Z,30.94
2022-08-11T19:06:05.977Z,30.92
2022-08-11T19:08:49.193Z,30.85
2022-08-11T19:11:42.847Z,30.82
2022-08-11T19:14:31.599Z,30.69
2022-08-11T19:17:44.648Z,30.64
2022-08-11T19:20:28.955Z,30.55
2022-08-11T19:23:15.842Z,30.37
2022-08-11T19:26:02.823Z,30.10
2022-08-11T19:28:52.768Z,30.36
2022-08-11T19:31:44.043Z,30.28
2022-08-11T19:34:32.548Z,30.29
2022-08-11T19:37:23.524Z,30.18
2022-08-11T19:40:11.896Z,30.01
2022-08-11T19:42:59.415Z,30.02
2022-08-11T19:45:52.226Z,30.10
2022-08-11T19:48:40.936Z,29.93
2022-08-11T19:51:29.347Z,29.90
2022-08-11T19:54:16.705Z,29.85
2022-08-11T19:57:04.075Z,29.77
2022-08-11T19:59:52.051Z,29.77
2022-08-11T20:02:39.982Z,29.67
2022-08-11T20:05:27.650Z,29.52
2022-08-11T20:08:16.691Z,29.51
2022-08-11T20:11:06.636Z,29.34
2022-08-11T20:13:54.126Z,29.44
2022-08-11T20:16:42.863Z,29.34
2022-08-11T20:19:55.427Z,29.20
2022-08-11T20:22:38.474Z,29.18
2022-08-11T20:25:25.911Z,29.19
2022-08-11T20:28:13.843Z,29.11
2022-08-11T20:31:03.245Z,29.11
2022-08-11T20:33:50.608Z,29.10
2022-08-11T20:36:37.835Z,29.08
2022-08-11T20:39:25.534Z,29.00
2022-08-11T20:42:12.627Z,28.45
2022-08-11T20:44:59.809Z,29.01
2022-08-11T20:47:56.546Z,29.00
2022-08-11T20:50:47.285Z,28.94
2022-08-11T20:53:39.092Z,28.95
2022-08-11T20:56:28.641Z,28.87
2022-08-11T20:59:18.903Z,28.87
2022-08-11T21:02:10.110Z,28.87
2022-08-11T21:05:00.350Z,28.87
2022-08-11T21:07:57.009Z,28.86
2022-08-11T21:10:51.847Z,28.80
2022-08-11T21:13:46.095Z,28.17
2022-08-11T21:16:37.108Z,28.75
2022-08-11T21:19:59.983Z,28.73
2022-08-11T21:22:59.520Z,28.65
2022-08-11T21:25:59.292Z,28.63
2022-08-11T21:28:47.250Z,28.61
2022-08-11T21:31:34.391Z,28.40
2022-08-11T21:34:21.342Z,28.49
2022-08-11T21:37:08.810Z,28.45
2022-08-11T21:39:56.668Z,28.43
2022-08-11T21:42:46.439Z,28.37
2022-08-11T21:45:33.455Z,28.30
2022-08-11T21:48:20.774Z,28.31
2022-08-11T21:51:06.624Z,28.22
2022-08-11T21:53:52.867Z,28.19
2022-08-11T21:56:39.115Z,28.21
2022-08-11T21:59:26.677Z,28.09
2022-08-11T22:02:14.684Z,28.05
2022-08-11T22:05:01.982Z,27.92
2022-08-11T22:07:49.915Z,28.03
2022-08-11T22:10:42.201Z,28.01
2022-08-11T22:13:32.639Z,27.87
2022-08-11T22:16:20.196Z,27.84
2022-08-11T22:19:10.508Z,27.83
2022-08-11T22:22:03.768Z,27.76
2022-08-11T22:24:53.101Z,27.76
2022-08-11T22:27:41.946Z,27.69
2022-08-11T22:30:30.742Z,27.63
2022-08-11T22:33:25.730Z,27.62
2022-08-11T22:36:16.122Z,27.58
2022-08-11T22:39:04.926Z,27.56
2022-08-11T22:41:51.299Z,27.50
2022-08-11T22:44:37.018Z,27.47
2022-08-11T22:47:27.497Z,27.46
2022-08-11T22:50:31.314Z,27.47
2022-08-11T22:53:18.155Z,27.45
2022-08-11T22:56:05.430Z,27.37
2022-08-11T22:58:54.714Z,27.37
2022-08-11T23:01:54.715Z,27.25
2022-08-11T23:04:45.292Z,27.32
2022-08-11T23:07:51.073Z,27.33
2022-08-11T23:10:40.422Z,27.32
2022-08-11T23:13:27.897Z,27.24
2022-08-11T23:16:15.373Z,27.07
2022-08-11T23:19:01.815Z,27.13
2022-08-11T23:21:48.199Z,27.10
2022-08-11T23:24:36.609Z,27.04
2022-08-11T23:27:25.469Z,26.97
2022-08-11T23:30:19.736Z,26.95
2022-08-11T23:33:14.558Z,26.92
2022-08-11T23:36:05.333Z,26.91
2022-08-11T23:38:52.055Z,26.92
2022-08-11T23:41:40.354Z,26.87
2022-08-11T23:44:29.219Z,26.93
2022-08-11T23:47:19.164Z,26.90
2022-08-11T23:50:06.876Z,26.90
2022-08-11T23:52:54.428Z,26.92
2022-08-11T23:55:40.806Z,26.71
2022-08-11T23:58:28.225Z,26.75
